Time;durP1;ratioP1;P1;durP2;ratioP2;P2;SDS_P1;SDS_P2;PMS_P1;PMS_P2;Temp;Humidity;BMP_temperature;BMP_pressure;BME280_temperature;BME280_humidity;BME280_pressure;Samples;Min_cycle;Max_cycle;Signal;HPM_P1;HPM_P2
2023/08/17 00:01:40;;;;;;;;;;;24.10;1.00;;;;;;4918668;29;19923;-48
2023/08/17 00:04:07;;;;;;;;;;;24.10;1.00;;;;;;4918815;29;19946;-53
2023/08/17 00:06:33;;;;;;;;;;;24.10;1.00;;;;;;4918627;29;20339;-52
2023/08/17 00:09:01;;;;;;;;;;;24.10;1.00;;;;;;4918575;29;19923;-53
2023/08/17 00:11:27;;;;;;;;;;;24.10;1.00;;;;;;4918087;29;19923;-52
2023/08/17 00:13:54;;;;;;;;;;;24.10;1.00;;;;;;4918589;29;19969;-50
2023/08/17 00:16:22;;;;;;;;;;;24.10;1.00;;;;;;5152357;23;19924;-48
2023/08/17 00:18:49;;;;;;;;;;;24.10;1.00;;;;;;4918521;29;19927;-51
2023/08/17 00:21:16;;;;;;;;;;;24.10;1.00;;;;;;4917855;29;19927;-50
2023/08/17 00:23:42;;;;;;;;;;;24.00;1.00;;;;;;4918555;29;20413;-46
2023/08/17 00:26:09;;;;;;;;;;;24.10;1.00;;;;;;4918215;29;20013;-52
2023/08/17 00:28:36;;;;;;;;;;;24.10;1.00;;;;;;4918338;29;19979;-47
2023/08/17 00:31:03;;;;;;;;;;;24.10;1.00;;;;;;4901031;29;20025;-51
2023/08/17 00:33:30;;;;;;;;;;;24.10;1.00;;;;;;4918168;29;19954;-49
2023/08/17 00:35:56;;;;;;;;;;;24.00;1.00;;;;;;4900759;29;19929;-49
2023/08/17 00:38:25;;;;;;;;;;;24.00;1.00;;;;;;4918088;29;20406;-49
2023/08/17 00:40:51;;;;;;;;;;;24.10;1.00;;;;;;4917790;29;20084;-47
2023/08/17 00:43:18;;;;;;;;;;;24.00;1.00;;;;;;4901058;29;20017;-49
2023/08/17 00:45:46;;;;;;;;;;;24.00;1.00;;;;;;4901058;29;20018;-53
2023/08/17 00:48:14;;;;;;;;;;;24.10;1.00;;;;;;5061298;23;19951;-47
2023/08/17 00:50:41;;;;;;;;;;;24.00;1.00;;;;;;4900339;29;19990;-51
2023/08/17 00:53:13;;;;;;;;;;;24.00;1.00;;;;;;4917794;29;19929;-51
2023/08/17 00:55:40;;;;;;;;;;;24.00;1.00;;;;;;4908282;29;19927;-50
2023/08/17 00:58:07;;;;;;;;;;;24.00;1.00;;;;;;4898818;29;19927;-46
2023/08/17 01:00:34;;;;;;;;;;;24.00;1.00;;;;;;4881688;29;19923;-52
2023/08/17 01:03:02;;;;;;;;;;;24.00;1.00;;;;;;4881942;29;19930;-52
2023/08/17 01:05:29;;;;;;;;;;;24.00;1.00;;;;;;4898600;29;19966;-53
2023/08/17 01:07:56;;;;;;;;;;;24.00;1.00;;;;;;4882005;29;19974;-48
2023/08/17 01:10:23;;;;;;;;;;;24.00;1.00;;;;;;4881659;29;19923;-49
2023/08/17 01:13:03;;;;;;;;;;;24.00;1.00;;;;;;4881173;29;19924;-46
2023/08/17 01:15:38;;;;;;;;;;;24.00;1.00;;;;;;4881679;29;19935;-48
2023/08/17 01:20:54;;;;;;;;;;;24.00;1.00;;;;;;4895815;29;19931;-46
2023/08/17 01:23:22;;;;;;;;;;;24.00;1.00;;;;;;4898403;29;19930;-50
2023/08/17 01:25:49;;;;;;;;;;;24.00;1.00;;;;;;4881476;29;19924;-48
2023/08/17 01:28:16;;;;;;;;;;;24.00;1.00;;;;;;4898224;29;20019;-51
2023/08/17 01:30:48;;;;;;;;;;;24.00;1.00;;;;;;4881193;29;20199;-45
2023/08/17 01:33:22;;;;;;;;;;;24.00;1.00;;;;;;4889211;29;20296;-48
2023/08/17 01:36:05;;;;;;;;;;;24.00;1.00;;;;;;4881362;29;19924;-47
2023/08/17 01:38:34;;;;;;;;;;;24.00;1.00;;;;;;4898184;29;19967;-48
2023/08/17 01:41:02;;;;;;;;;;;23.90;1.00;;;;;;4881034;29;19923;-45
2023/08/17 01:43:28;;;;;;;;;;;23.90;1.00;;;;;;4881071;29;19935;-50
2023/08/17 01:45:55;;;;;;;;;;;23.90;1.00;;;;;;4881095;29;19963;-46
2023/08/17 01:48:22;;;;;;;;;;;23.90;1.00;;;;;;4880503;29;19958;-46
2023/08/17 01:50:49;;;;;;;;;;;23.90;1.00;;;;;;4926920;23;19945;-52
2023/08/17 01:53:19;;;;;;;;;;;23.90;1.00;;;;;;4908818;29;19965;-48
2023/08/17 01:55:46;;;;;;;;;;;23.90;1.00;;;;;;4916763;29;19927;-50
2023/08/17 01:58:13;;;;;;;;;;;23.90;1.00;;;;;;4899617;29;19930;-47
2023/08/17 02:00:40;;;;;;;;;;;23.90;1.00;;;;;;4899472;29;20331;-50
2023/08/17 02:03:06;;;;;;;;;;;23.90;1.00;;;;;;4916668;29;19923;-52
2023/08/17 02:05:33;;;;;;;;;;;23.90;1.00;;;;;;4899358;29;19949;-46
2023/08/17 02:08:00;;;;;;;;;;;23.90;1.00;;;;;;4899534;29;19927;-45
2023/08/17 02:10:27;;;;;;;;;;;23.90;1.00;;;;;;4899070;29;19927;-47
2023/08/17 02:12:54;;;;;;;;;;;23.90;1.00;;;;;;4899493;29;19923;-45
2023/08/17 02:15:31;;;;;;;;;;;23.90;1.00;;;;;;4916303;29;19923;-52
2023/08/17 02:18:00;;;;;;;;;;;23.90;1.00;;;;;;4899525;29;19965;-50
2023/08/17 02:20:28;;;;;;;;;;;23.90;1.00;;;;;;4916227;29;20457;-50
2023/08/17 02:22:55;;;;;;;;;;;23.90;1.00;;;;;;4899449;29;19923;-50
2023/08/17 02:25:22;;;;;;;;;;;23.90;1.00;;;;;;4899179;29;20017;-50
2023/08/17 02:27:51;;;;;;;;;;;23.80;1.00;;;;;;4916186;29;19927;-52
2023/08/17 02:30:18;;;;;;;;;;;23.80;1.00;;;;;;4899195;29;20399;-45
2023/08/17 02:32:44;;;;;;;;;;;23.80;1.00;;;;;;4900729;29;20443;-49
2023/08/17 02:35:11;;;;;;;;;;;23.80;1.00;;;;;;4899282;29;20387;-51
2023/08/17 02:37:38;;;;;;;;;;;23.80;1.00;;;;;;4916094;29;19966;-48
2023/08/17 02:40:05;;;;;;;;;;;23.80;1.00;;;;;;4899098;29;19927;-50
2023/08/17 02:42:31;;;;;;;;;;;23.80;1.00;;;;;;4915739;29;19930;-47
2023/08/17 02:44:58;;;;;;;;;;;23.80;1.00;;;;;;4891309;29;19929;-46
2023/08/17 02:47:25;;;;;;;;;;;23.80;1.00;;;;;;4899057;29;19954;-48
2023/08/17 02:49:52;;;;;;;;;;;23.80;1.00;;;;;;4898860;29;20292;-51
2023/08/17 02:52:19;;;;;;;;;;;23.80;1.00;;;;;;5131509;23;20014;-49
2023/08/17 02:54:46;;;;;;;;;;;23.80;1.00;;;;;;4898956;29;19923;-48
2023/08/17 02:57:12;;;;;;;;;;;23.80;1.00;;;;;;4916059;29;20280;-52
2023/08/17 02:59:39;;;;;;;;;;;23.80;1.00;;;;;;4898047;29;19934;-47
2023/08/17 03:02:06;;;;;;;;;;;23.80;1.00;;;;;;4914519;29;19922;-50
2023/08/17 03:04:34;;;;;;;;;;;23.80;1.00;;;;;;4919608;29;19982;-50
2023/08/17 03:07:01;;;;;;;;;;;23.80;1.00;;;;;;4902778;29;20386;-48
2023/08/17 03:09:28;;;;;;;;;;;23.80;1.00;;;;;;4902764;29;19929;-51
2023/08/17 03:11:55;;;;;;;;;;;23.80;1.00;;;;;;4902143;29;19965;-51
2023/08/17 03:14:22;;;;;;;;;;;23.80;1.00;;;;;;4919730;29;19923;-46
2023/08/17 03:16:48;;;;;;;;;;;23.80;1.00;;;;;;4902457;29;20006;-51
2023/08/17 03:19:15;;;;;;;;;;;23.80;1.00;;;;;;4919419;29;20025;-50
2023/08/17 03:21:43;;;;;;;;;;;23.80;1.00;;;;;;4902247;29;19974;-50
2023/08/17 03:24:10;;;;;;;;;;;23.80;1.00;;;;;;4971572;23;19927;-46
2023/08/17 03:26:37;;;;;;;;;;;23.70;1.00;;;;;;4910366;29;19923;-48
2023/08/17 03:29:08;;;;;;;;;;;23.80;1.00;;;;;;4918193;29;20287;-49
2023/08/17 03:31:35;;;;;;;;;;;23.80;1.00;;;;;;4917709;29;19930;-48
2023/08/17 03:34:02;;;;;;;;;;;23.70;1.00;;;;;;4917952;29;19923;-45
2023/08/17 03:36:29;;;;;;;;;;;23.70;1.00;;;;;;4917974;29;19971;-46
2023/08/17 03:38:56;;;;;;;;;;;23.70;1.00;;;;;;4919170;29;19923;-46
2023/08/17 03:41:25;;;;;;;;;;;23.70;1.00;;;;;;4917798;29;19971;-47
2023/08/17 03:43:52;;;;;;;;;;;23.70;1.00;;;;;;4917672;29;19923;-47
2023/08/17 03:46:19;;;;;;;;;;;23.70;1.00;;;;;;4919076;29;19923;-49
2023/08/17 03:48:46;;;;;;;;;;;23.70;1.00;;;;;;4917574;29;19933;-52
2023/08/17 03:51:12;;;;;;;;;;;23.70;1.00;;;;;;4918700;29;19925;-48
2023/08/17 03:53:39;;;;;;;;;;;23.70;1.00;;;;;;4916133;29;19911;-50
2023/08/17 03:56:06;;;;;;;;;;;23.70;1.00;;;;;;4922118;29;19971;-47
2023/08/17 03:58:34;;;;;;;;;;;23.70;1.00;;;;;;4917536;29;19951;-48
2023/08/17 04:01:03;;;;;;;;;;;23.70;1.00;;;;;;4918727;29;19923;-48
2023/08/17 04:03:30;;;;;;;;;;;23.70;1.00;;;;;;4917354;29;20009;-50
2023/08/17 04:06:03;;;;;;;;;;;23.70;1.00;;;;;;4917265;29;20014;-46
2023/08/17 04:08:30;;;;;;;;;;;23.70;1.00;;;;;;4916901;29;19923;-50
2023/08/17 04:10:57;;;;;;;;;;;23.70;1.00;;;;;;4887155;29;19923;-51
2023/08/17 04:13:23;;;;;;;;;;;23.60;1.00;;;;;;4891672;29;19931;-47
2023/08/17 04:15:52;;;;;;;;;;;23.60;1.00;;;;;;4914096;29;19927;-49
2023/08/17 04:18:18;;;;;;;;;;;23.60;1.00;;;;;;4916688;29;19934;-45
2023/08/17 04:20:45;;;;;;;;;;;23.60;1.00;;;;;;4907339;29;20368;-49
2023/08/17 04:23:14;;;;;;;;;;;23.50;1.00;;;;;;4901434;29;19962;-48
2023/08/17 04:25:41;;;;;;;;;;;23.50;1.00;;;;;;4907840;29;20427;-49
2023/08/17 04:28:08;;;;;;;;;;;23.50;1.00;;;;;;4909604;29;20371;-47
2023/08/17 04:30:37;;;;;;;;;;;23.50;1.00;;;;;;4916736;29;20379;-49
2023/08/17 04:33:04;;;;;;;;;;;23.50;1.00;;;;;;4917019;29;20334;-45
2023/08/17 04:35:31;;;;;;;;;;;23.50;1.00;;;;;;4915141;29;19927;-46
2023/08/17 04:37:58;;;;;;;;;;;23.50;1.00;;;;;;4916998;29;19923;-50
2023/08/17 04:40:25;;;;;;;;;;;23.50;1.00;;;;;;4916370;29;19975;-45
2023/08/17 04:42:53;;;;;;;;;;;23.50;1.00;;;;;;4916361;29;20017;-45
2023/08/17 04:45:21;;;;;;;;;;;23.50;1.00;;;;;;4916540;29;19923;-47
2023/08/17 04:47:49;;;;;;;;;;;23.50;1.00;;;;;;4916593;29;19923;-50
2023/08/17 04:50:16;;;;;;;;;;;23.50;1.00;;;;;;4917850;29;19945;-48
2023/08/17 04:52:43;;;;;;;;;;;23.50;1.00;;;;;;4916241;29;20017;-51
2023/08/17 04:55:11;;;;;;;;;;;23.40;1.00;;;;;;5042293;23;19929;-47
2023/08/17 04:57:37;;;;;;;;;;;23.40;1.00;;;;;;4902880;29;19923;-45
2023/08/17 05:00:09;;;;;;;;;;;23.40;1.00;;;;;;4900797;29;19926;-50
2023/08/17 05:02:36;;;;;;;;;;;23.40;1.00;;;;;;4900523;29;20154;-49
2023/08/17 05:05:04;;;;;;;;;;;23.40;1.00;;;;;;4900461;29;19970;-50
2023/08/17 05:07:31;;;;;;;;;;;23.40;1.00;;;;;;4900559;29;19923;-44
2023/08/17 05:09:58;;;;;;;;;;;23.40;1.00;;;;;;4900502;29;19923;-47
2023/08/17 05:12:25;;;;;;;;;;;23.40;1.00;;;;;;4900346;29;19923;-45
2023/08/17 05:14:52;;;;;;;;;;;23.40;1.00;;;;;;4917178;29;20021;-48
2023/08/17 05:17:19;;;;;;;;;;;23.40;1.00;;;;;;4900489;29;19923;-45
2023/08/17 05:19:45;;;;;;;;;;;23.40;1.00;;;;;;4900209;29;19923;-51
2023/08/17 05:22:14;;;;;;;;;;;23.40;1.00;;;;;;4899823;29;20375;-50
2023/08/17 05:24:41;;;;;;;;;;;23.40;1.00;;;;;;4899606;29;19969;-49
2023/08/17 05:27:08;;;;;;;;;;;23.40;1.00;;;;;;5345596;23;19923;-49
2023/08/17 05:29:35;;;;;;;;;;;23.40;1.00;;;;;;4915901;29;20291;-49
2023/08/17 05:32:02;;;;;;;;;;;23.40;1.00;;;;;;4915662;29;19934;-51
2023/08/17 05:34:29;;;;;;;;;;;23.40;1.00;;;;;;4915792;29;19966;-49
2023/08/17 05:36:57;;;;;;;;;;;23.40;1.00;;;;;;4915809;29;20029;-46
2023/08/17 05:39:24;;;;;;;;;;;23.40;1.00;;;;;;4916001;29;19947;-52
2023/08/17 05:41:50;;;;;;;;;;;23.40;1.00;;;;;;4915221;29;19923;-46
2023/08/17 05:44:17;;;;;;;;;;;23.40;1.00;;;;;;4915576;29;19973;-48
2023/08/17 05:46:44;;;;;;;;;;;23.40;1.00;;;;;;4915528;29;20023;-52
2023/08/17 05:49:12;;;;;;;;;;;23.40;1.00;;;;;;4915862;29;20145;-52
2023/08/17 05:51:38;;;;;;;;;;;23.40;1.00;;;;;;4916503;29;19927;-47
2023/08/17 05:54:05;;;;;;;;;;;23.40;1.00;;;;;;4915439;29;19965;-50
2023/08/17 05:56:32;;;;;;;;;;;23.40;1.00;;;;;;4916624;29;19934;-51
2023/08/17 05:58:59;;;;;;;;;;;23.40;1.00;;;;;;5052201;23;20277;-52
2023/08/17 06:01:26;;;;;;;;;;;23.30;1.00;;;;;;4916652;29;20327;-47
2023/08/17 06:03:52;;;;;;;;;;;23.40;1.00;;;;;;4899501;29;20029;-50
2023/08/17 06:06:19;;;;;;;;;;;23.40;1.00;;;;;;4901657;29;19923;-45
2023/08/17 06:08:46;;;;;;;;;;;23.40;1.00;;;;;;4897590;29;20400;-49
2023/08/17 06:11:13;;;;;;;;;;;23.40;1.00;;;;;;4897484;29;20344;-50
2023/08/17 06:13:40;;;;;;;;;;;23.30;1.00;;;;;;4897131;29;19931;-48
2023/08/17 06:16:06;;;;;;;;;;;23.30;1.00;;;;;;4890224;29;19971;-46
2023/08/17 06:18:34;;;;;;;;;;;23.30;1.00;;;;;;4897393;29;20002;-50
2023/08/17 06:21:00;;;;;;;;;;;23.40;1.00;;;;;;4897055;29;19923;-49
2023/08/17 06:23:27;;;;;;;;;;;23.30;1.00;;;;;;4897513;29;20474;-49
2023/08/17 06:25:58;;;;;;;;;;;23.30;1.00;;;;;;4897142;29;19931;-51
2023/08/17 06:28:25;;;;;;;;;;;23.30;1.00;;;;;;4897665;29;19950;-46
2023/08/17 06:30:53;;;;;;;;;;;23.30;1.00;;;;;;4896987;29;20016;-48
2023/08/17 06:33:20;;;;;;;;;;;23.40;1.00;;;;;;4897400;29;20344;-52
2023/08/17 06:35:47;;;;;;;;;;;23.30;1.00;;;;;;4896803;29;19930;-45
2023/08/17 06:38:13;;;;;;;;;;;23.30;1.00;;;;;;4897328;29;19946;-50
2023/08/17 06:40:40;;;;;;;;;;;23.40;1.00;;;;;;4897092;29;19947;-45
2023/08/17 06:43:07;;;;;;;;;;;23.30;1.00;;;;;;4897067;29;20355;-46
2023/08/17 06:45:34;;;;;;;;;;;23.40;1.00;;;;;;4897057;29;19923;-48
2023/08/17 06:48:01;;;;;;;;;;;23.30;1.00;;;;;;4897164;29;20355;-51
2023/08/17 06:50:28;;;;;;;;;;;23.30;1.00;;;;;;4897100;29;19958;-51
2023/08/17 06:52:55;;;;;;;;;;;23.40;1.00;;;;;;4897054;29;19987;-52
2023/08/17 06:55:21;;;;;;;;;;;23.40;1.00;;;;;;4897061;29;19923;-52
2023/08/17 06:57:51;;;;;;;;;;;23.40;1.00;;;;;;4896962;29;19931;-50
2023/08/17 07:00:21;;;;;;;;;;;23.40;1.00;;;;;;5058841;23;19942;-49
2023/08/17 07:02:48;;;;;;;;;;;23.40;1.00;;;;;;4932678;29;19930;-51
2023/08/17 07:05:21;;;;;;;;;;;23.40;1.00;;;;;;4921917;29;19923;-49
2023/08/17 07:07:48;;;;;;;;;;;23.40;1.00;;;;;;4896590;29;19929;-50
2023/08/17 07:10:15;;;;;;;;;;;23.40;1.00;;;;;;4912370;29;19930;-51
2023/08/17 07:12:41;;;;;;;;;;;23.40;1.00;;;;;;4915565;29;20368;-51
2023/08/17 07:15:09;;;;;;;;;;;23.40;1.00;;;;;;4884006;29;19923;-48
2023/08/17 07:17:36;;;;;;;;;;;23.40;1.00;;;;;;4915782;29;19923;-48
2023/08/17 07:20:04;;;;;;;;;;;23.40;1.00;;;;;;4913049;29;19935;-50
2023/08/17 07:22:34;;;;;;;;;;;23.40;1.00;;;;;;4911147;29;19978;-51
2023/08/17 07:25:01;;;;;;;;;;;23.40;1.00;;;;;;4916063;29;19923;-52
2023/08/17 07:27:28;;;;;;;;;;;23.40;1.00;;;;;;4915633;29;19930;-45
2023/08/17 07:29:55;;;;;;;;;;;23.40;1.00;;;;;;5007864;23;19911;-46
2023/08/17 07:32:22;;;;;;;;;;;23.40;1.00;;;;;;4908049;29;19927;-49
2023/08/17 07:34:49;;;;;;;;;;;23.40;1.00;;;;;;4915555;29;19927;-50
2023/08/17 07:37:16;;;;;;;;;;;23.40;1.00;;;;;;4915627;29;19923;-52
2023/08/17 07:39:42;;;;;;;;;;;23.40;1.00;;;;;;4915341;29;19965;-50
2023/08/17 07:42:09;;;;;;;;;;;23.40;1.00;;;;;;4915322;29;20013;-52
2023/08/17 07:44:36;;;;;;;;;;;23.40;1.00;;;;;;4915408;29;19976;-49
2023/08/17 07:47:03;;;;;;;;;;;23.40;1.00;;;;;;4915524;29;19986;-47
2023/08/17 07:49:29;;;;;;;;;;;23.40;1.00;;;;;;4913725;29;19922;-50
2023/08/17 07:51:59;;;;;;;;;;;23.40;1.00;;;;;;4910796;29;19931;-50
2023/08/17 07:54:26;;;;;;;;;;;23.40;1.00;;;;;;4918941;29;20394;-48
2023/08/17 07:56:53;;;;;;;;;;;23.40;1.00;;;;;;4918678;29;20340;-48
2023/08/17 07:59:19;;;;;;;;;;;23.40;1.00;;;;;;4918805;29;19994;-49
2023/08/17 08:01:46;;;;;;;;;;;23.40;1.00;;;;;;5310521;23;20025;-50
2023/08/17 08:04:13;;;;;;;;;;;23.40;1.00;;;;;;4918403;29;19923;-45
2023/08/17 08:06:40;;;;;;;;;;;23.40;1.00;;;;;;4918569;29;20375;-49
2023/08/17 08:09:07;;;;;;;;;;;23.40;1.00;;;;;;4918383;29;19923;-45
2023/08/17 08:11:33;;;;;;;;;;;23.40;1.00;;;;;;4918571;29;20205;-49
2023/08/17 08:14:00;;;;;;;;;;;23.40;1.00;;;;;;4918406;29;20398;-47
2023/08/17 08:16:29;;;;;;;;;;;23.40;1.00;;;;;;4918452;29;19923;-47
2023/08/17 08:18:56;;;;;;;;;;;23.40;1.00;;;;;;4918299;29;20386;-48
2023/08/17 08:21:23;;;;;;;;;;;23.50;1.00;;;;;;4918294;29;19954;-47
2023/08/17 08:23:49;;;;;;;;;;;23.50;1.00;;;;;;4918319;29;19973;-48
2023/08/17 08:26:16;;;;;;;;;;;23.50;1.00;;;;;;4910439;29;20406;-46
2023/08/17 08:28:43;;;;;;;;;;;23.50;1.00;;;;;;4918188;29;19971;-45
2023/08/17 08:31:10;;;;;;;;;;;23.50;1.00;;;;;;4918093;29;19986;-53
2023/08/17 08:33:37;;;;;;;;;;;23.50;1.00;;;;;;4981920;23;19938;-48
2023/08/17 08:36:05;;;;;;;;;;;23.50;1.00;;;;;;4887468;29;19962;-47
2023/08/17 08:38:32;;;;;;;;;;;23.50;1.00;;;;;;4899243;29;20023;-52
2023/08/17 08:41:00;;;;;;;;;;;23.50;1.00;;;;;;4898882;29;19945;-52
2023/08/17 08:43:26;;;;;;;;;;;23.50;1.00;;;;;;4899191;29;19923;-50
2023/08/17 08:45:54;;;;;;;;;;;23.50;1.00;;;;;;4899013;29;19934;-52
2023/08/17 08:48:22;;;;;;;;;;;23.50;1.00;;;;;;4899070;29;20264;-46
2023/08/17 08:50:49;;;;;;;;;;;23.60;1.00;;;;;;4898797;29;19924;-51
2023/08/17 08:53:20;;;;;;;;;;;23.50;1.00;;;;;;4898917;29;19923;-52
2023/08/17 08:55:54;;;;;;;;;;;23.60;1.00;;;;;;4898843;29;19923;-48
2023/08/17 08:58:21;;;;;;;;;;;23.60;1.00;;;;;;4898792;29;20021;-47
2023/08/17 09:00:48;;;;;;;;;;;23.60;1.00;;;;;;4898520;29;20402;-46
2023/08/17 09:03:17;;;;;;;;;;;23.60;1.00;;;;;;4898839;29;19931;-52
2023/08/17 09:05:46;;;;;;;;;;;23.60;1.00;;;;;;4897527;29;19923;-48
2023/08/17 09:08:13;;;;;;;;;;;23.60;1.00;;;;;;4898616;29;19938;-50
2023/08/17 09:10:43;;;;;;;;;;;23.60;1.00;;;;;;4898290;29;20014;-49
2023/08/17 09:13:10;;;;;;;;;;;23.60;1.00;;;;;;4898549;29;19924;-50
2023/08/17 09:15:36;;;;;;;;;;;23.60;1.00;;;;;;4898439;29;20344;-52
2023/08/17 09:18:05;;;;;;;;;;;23.60;1.00;;;;;;4898542;29;19923;-48
2023/08/17 09:20:38;;;;;;;;;;;23.60;1.00;;;;;;4898799;29;19927;-50
2023/08/17 09:23:10;;;;;;;;;;;23.60;1.00;;;;;;4898438;29;19930;-49
2023/08/17 09:25:38;;;;;;;;;;;23.60;1.00;;;;;;4898428;29;20451;-51
2023/08/17 09:28:13;;;;;;;;;;;23.60;1.00;;;;;;4898357;29;19927;-46
2023/08/17 09:30:52;;;;;;;;;;;23.60;1.00;;;;;;4898079;29;19958;-52
2023/08/17 09:33:20;;;;;;;;;;;23.60;1.00;;;;;;4897948;29;20001;-52
2023/08/17 09:35:47;;;;;;;;;;;23.60;1.00;;;;;;4984802;23;19974;-50
2023/08/17 09:38:14;;;;;;;;;;;23.60;1.00;;;;;;4900035;29;19923;-51
2023/08/17 09:40:42;;;;;;;;;;;23.60;1.00;;;;;;4916616;29;19923;-48
2023/08/17 09:43:09;;;;;;;;;;;23.60;1.00;;;;;;4916963;29;19945;-50
2023/08/17 09:45:39;;;;;;;;;;;23.60;1.00;;;;;;4916880;29;19927;-45
2023/08/17 09:48:07;;;;;;;;;;;23.60;1.00;;;;;;4917025;29;19962;-51
2023/08/17 09:50:35;;;;;;;;;;;23.60;1.00;;;;;;4916647;29;19926;-49
2023/08/17 09:53:04;;;;;;;;;;;23.70;1.00;;;;;;4916553;29;19942;-49
2023/08/17 09:55:33;;;;;;;;;;;23.70;1.00;;;;;;4916687;29;19962;-51
2023/08/17 09:58:00;;;;;;;;;;;23.70;1.00;;;;;;4916754;29;19958;-52
2023/08/17 10:00:28;;;;;;;;;;;23.60;1.00;;;;;;4916564;29;19923;-49
2023/08/17 10:02:57;;;;;;;;;;;23.70;1.00;;;;;;4916705;29;19930;-52
2023/08/17 10:05:25;;;;;;;;;;;23.70;1.00;;;;;;4916953;29;19923;-48
2023/08/17 10:07:53;;;;;;;;;;;23.70;1.00;;;;;;4916486;29;20387;-45
2023/08/17 10:10:30;;;;;;;;;;;23.70;1.00;;;;;;4912846;29;20389;-47
2023/08/17 10:12:57;;;;;;;;;;;23.70;1.00;;;;;;4913245;29;20406;-52
2023/08/17 10:15:25;;;;;;;;;;;23.70;1.00;;;;;;4916222;29;19923;-47
2023/08/17 10:18:07;;;;;;;;;;;23.70;1.00;;;;;;4916419;29;19929;-52
2023/08/17 10:20:34;;;;;;;;;;;23.70;1.00;;;;;;4916381;29;19923;-49
2023/08/17 10:23:03;;;;;;;;;;;23.70;1.00;;;;;;4908411;29;19930;-50
2023/08/17 10:25:30;;;;;;;;;;;23.70;1.00;;;;;;4916269;29;19930;-48
2023/08/17 10:27:56;;;;;;;;;;;23.70;1.00;;;;;;4916174;29;19923;-53
2023/08/17 10:30:26;;;;;;;;;;;23.70;1.00;;;;;;4899081;29;20441;-50
2023/08/17 10:32:52;;;;;;;;;;;23.70;1.00;;;;;;4915964;29;19923;-51
2023/08/17 10:38:27;;;;;;;;;;;23.70;1.00;;;;;;4907166;29;20410;-53
2023/08/17 10:41:23;;;;;;;;;;;23.70;1.00;;;;;;4915755;29;19929;-47
2023/08/17 10:43:56;;;;;;;;;;;23.70;1.00;;;;;;4907656;29;20009;-46
2023/08/17 10:46:37;;;;;;;;;;;23.70;1.00;;;;;;4900916;29;20344;-49
2023/08/17 10:49:07;;;;;;;;;;;23.80;1.00;;;;;;4897029;29;19923;-51
2023/08/17 10:51:34;;;;;;;;;;;23.70;1.00;;;;;;4897107;29;20291;-50
2023/08/17 10:54:02;;;;;;;;;;;23.70;1.00;;;;;;4896937;29;19927;-51
2023/08/17 10:56:29;;;;;;;;;;;23.70;1.00;;;;;;4896883;29;19927;-52
2023/08/17 10:59:01;;;;;;;;;;;23.70;1.00;;;;;;4897062;29;19924;-53
2023/08/17 11:01:31;;;;;;;;;;;23.70;1.00;;;;;;4896902;29;20402;-48
2023/08/17 11:04:11;;;;;;;;;;;23.70;1.00;;;;;;4897168;29;20013;-53
2023/08/17 11:06:38;;;;;;;;;;;23.70;1.00;;;;;;4964702;23;19922;-50
2023/08/17 11:09:08;;;;;;;;;;;23.70;1.00;;;;;;4953833;29;20022;-51
2023/08/17 11:11:35;;;;;;;;;;;23.70;1.00;;;;;;4953837;29;19989;-51
2023/08/17 11:14:02;;;;;;;;;;;23.70;1.00;;;;;;4953906;29;19922;-49
2023/08/17 11:16:29;;;;;;;;;;;23.70;1.00;;;;;;4922108;29;19978;-51
2023/08/17 11:18:58;;;;;;;;;;;23.80;1.00;;;;;;4934703;29;19922;-52
2023/08/17 11:21:25;;;;;;;;;;;23.80;1.00;;;;;;4935615;29;19932;-51
2023/08/17 11:23:54;;;;;;;;;;;23.70;1.00;;;;;;4938480;29;19978;-47
2023/08/17 11:26:22;;;;;;;;;;;23.80;1.00;;;;;;4938382;29;19922;-51
2023/08/17 11:28:49;;;;;;;;;;;23.80;1.00;;;;;;4938358;29;19927;-49
2023/08/17 11:31:16;;;;;;;;;;;23.80;1.00;;;;;;4937981;29;19933;-50
2023/08/17 11:33:43;;;;;;;;;;;23.80;1.00;;;;;;4938192;29;19926;-48
2023/08/17 11:36:10;;;;;;;;;;;23.80;1.00;;;;;;4938117;29;19945;-47
2023/08/17 11:38:38;;;;;;;;;;;23.80;1.00;;;;;;4934001;29;19970;-47
2023/08/17 11:41:08;;;;;;;;;;;23.80;1.00;;;;;;4937897;29;19934;-51
2023/08/17 11:43:35;;;;;;;;;;;23.80;1.00;;;;;;4938127;29;19926;-51
2023/08/17 11:46:02;;;;;;;;;;;23.80;1.00;;;;;;4937936;29;20409;-45
2023/08/17 11:48:29;;;;;;;;;;;23.80;1.00;;;;;;4937977;29;19926;-46
2023/08/17 11:51:03;;;;;;;;;;;23.80;1.00;;;;;;4920702;29;19961;-48
2023/08/17 11:53:34;;;;;;;;;;;23.70;1.00;;;;;;4938188;29;19930;-47
2023/08/17 11:56:01;;;;;;;;;;;23.80;1.00;;;;;;4937788;29;19922;-50
2023/08/17 11:58:41;;;;;;;;;;;23.80;1.00;;;;;;4937976;29;19922;-45
2023/08/17 12:01:12;;;;;;;;;;;23.80;1.00;;;;;;4937534;29;19930;-46
2023/08/17 12:03:40;;;;;;;;;;;23.80;1.00;;;;;;4937798;29;19922;-52
2023/08/17 12:06:08;;;;;;;;;;;23.80;1.00;;;;;;4937580;29;19930;-51
2023/08/17 12:08:34;;;;;;;;;;;23.80;1.00;;;;;;5417817;23;19921;-50
2023/08/17 12:11:04;;;;;;;;;;;23.80;1.00;;;;;;4914009;29;19923;-47
2023/08/17 12:13:35;;;;;;;;;;;23.80;1.00;;;;;;4918358;29;20013;-51
2023/08/17 12:16:03;;;;;;;;;;;23.80;1.00;;;;;;4906288;29;19961;-53
2023/08/17 12:18:33;;;;;;;;;;;23.80;1.00;;;;;;4899612;29;19931;-49
2023/08/17 12:21:00;;;;;;;;;;;23.80;1.00;;;;;;4899403;29;19931;-49
2023/08/17 12:23:27;;;;;;;;;;;23.80;1.00;;;;;;4899713;29;19927;-49
2023/08/17 12:25:54;;;;;;;;;;;23.80;1.00;;;;;;4899449;29;19930;-50
2023/08/17 12:28:22;;;;;;;;;;;23.70;1.00;;;;;;4899339;29;19923;-51
2023/08/17 12:30:56;;;;;;;;;;;23.80;1.00;;;;;;4899155;29;20104;-53
2023/08/17 12:33:23;;;;;;;;;;;23.80;1.00;;;;;;4899016;29;20348;-52
2023/08/17 12:35:50;;;;;;;;;;;23.80;1.00;;;;;;4899271;29;19923;-52
2023/08/17 12:38:17;;;;;;;;;;;23.80;1.00;;;;;;4899254;29;20025;-47
2023/08/17 12:43:32;;;;;;;;;;;23.80;1.00;;;;;;4929936;23;19982;-49
2023/08/17 12:45:59;;;;;;;;;;;23.80;1.00;;;;;;4906057;29;19927;-52
2023/08/17 12:48:25;;;;;;;;;;;23.80;1.00;;;;;;4899162;29;19938;-52
2023/08/17 12:50:52;;;;;;;;;;;23.80;1.00;;;;;;4898801;29;20388;-49
2023/08/17 12:53:19;;;;;;;;;;;23.80;1.00;;;;;;4898965;29;19942;-51
2023/08/17 12:55:46;;;;;;;;;;;23.80;1.00;;;;;;4898702;29;19923;-52
2023/08/17 12:58:13;;;;;;;;;;;23.80;1.00;;;;;;4899052;29;20046;-47
2023/08/17 13:00:40;;;;;;;;;;;23.80;1.00;;;;;;4881415;29;19930;-52
2023/08/17 13:03:06;;;;;;;;;;;23.80;1.00;;;;;;4899043;29;19935;-49
2023/08/17 13:05:35;;;;;;;;;;;23.80;1.00;;;;;;4898640;29;19946;-53
2023/08/17 13:08:02;;;;;;;;;;;23.80;1.00;;;;;;4898789;29;20417;-48
2023/08/17 13:10:29;;;;;;;;;;;23.80;1.00;;;;;;4898726;29;20006;-51
2023/08/17 13:15:39;;;;;;;;;;;23.80;1.00;;;;;;4922460;29;20015;-52
2023/08/17 13:18:06;;;;;;;;;;;23.80;1.00;;;;;;4917625;29;19923;-51
2023/08/17 13:20:33;;;;;;;;;;;23.80;1.00;;;;;;4900111;29;19951;-51
2023/08/17 13:23:00;;;;;;;;;;;23.80;1.00;;;;;;4917453;29;19923;-52
2023/08/17 13:25:27;;;;;;;;;;;23.80;1.00;;;;;;4917125;29;20021;-52
2023/08/17 13:27:53;;;;;;;;;;;23.80;1.00;;;;;;4917324;29;19923;-52
2023/08/17 13:30:20;;;;;;;;;;;23.80;1.00;;;;;;4917067;29;19939;-52
2023/08/17 13:32:47;;;;;;;;;;;23.80;1.00;;;;;;4917228;29;19973;-53
2023/08/17 13:35:14;;;;;;;;;;;23.80;1.00;;;;;;4916915;29;19978;-51
2023/08/17 13:37:41;;;;;;;;;;;23.80;1.00;;;;;;4917061;29;20363;-49
2023/08/17 13:40:08;;;;;;;;;;;23.80;1.00;;;;;;4916948;29;19927;-48
2023/08/17 13:42:36;;;;;;;;;;;23.80;1.00;;;;;;4916895;29;19923;-50
2023/08/17 13:45:03;;;;;;;;;;;23.80;1.00;;;;;;4916310;29;20399;-49
2023/08/17 13:47:30;;;;;;;;;;;23.80;1.00;;;;;;5193178;23;19922;-52
2023/08/17 13:49:56;;;;;;;;;;;23.80;1.00;;;;;;4954967;28;20441;-48
2023/08/17 13:52:25;;;;;;;;;;;23.80;1.00;;;;;;4954193;29;19922;-51
2023/08/17 13:54:52;;;;;;;;;;;23.80;1.00;;;;;;4951445;28;20422;-49
2023/08/17 13:57:19;;;;;;;;;;;23.80;1.00;;;;;;4926540;29;20153;-52
2023/08/17 13:59:45;;;;;;;;;;;23.80;1.00;;;;;;4915607;29;19929;-52
2023/08/17 14:02:12;;;;;;;;;;;23.80;1.00;;;;;;4928071;29;20026;-47
2023/08/17 14:04:39;;;;;;;;;;;23.80;1.00;;;;;;4935007;29;19984;-48
2023/08/17 14:07:06;;;;;;;;;;;23.80;1.00;;;;;;4935655;29;20026;-50
2023/08/17 14:09:33;;;;;;;;;;;23.80;1.00;;;;;;4935493;29;20403;-51
2023/08/17 14:12:00;;;;;;;;;;;23.80;1.00;;;;;;4935602;29;20302;-45
2023/08/17 14:14:28;;;;;;;;;;;23.80;1.00;;;;;;4935230;29;20017;-52
2023/08/17 14:16:55;;;;;;;;;;;23.80;1.00;;;;;;4910746;29;19926;-46
2023/08/17 14:19:22;;;;;;;;;;;23.80;1.00;;;;;;5094271;23;19923;-47
2023/08/17 14:21:49;;;;;;;;;;;23.80;1.00;;;;;;4915959;29;20295;-51
2023/08/17 14:24:15;;;;;;;;;;;23.80;1.00;;;;;;4916459;29;20454;-45
2023/08/17 14:26:42;;;;;;;;;;;23.80;1.00;;;;;;4916292;29;19951;-50
2023/08/17 14:29:09;;;;;;;;;;;23.80;1.00;;;;;;4916187;29;19923;-50
2023/08/17 14:31:36;;;;;;;;;;;23.80;1.00;;;;;;4899037;29;20379;-50
2023/08/17 14:34:03;;;;;;;;;;;23.80;1.00;;;;;;4916332;29;19927;-48
2023/08/17 14:36:32;;;;;;;;;;;23.80;1.00;;;;;;4916476;29;19953;-50
2023/08/17 14:38:59;;;;;;;;;;;23.80;1.00;;;;;;4916138;29;19929;-47
2023/08/17 14:41:31;;;;;;;;;;;23.80;1.00;;;;;;4915797;29;20446;-48
2023/08/17 14:43:58;;;;;;;;;;;23.80;1.00;;;;;;4901865;29;19923;-49
2023/08/17 14:46:28;;;;;;;;;;;23.80;1.00;;;;;;4883365;29;19923;-44